Time,TemperatureF,DewpointF,PressureIn,WindDirection,WindDirectionDegrees,WindSpeedMPH,WindSpeedGustMPH,Humidity,HourlyPrecipIn,Conditions,Clouds,dailyrainin,SoftwareType,DateUTC
2013-01-11 00:04:00,28.1,21.0,30.52,NE,41,2.0,-999.0,75,-99.99,,,0.00,weatherlink.com 1.10,2013-01-11 05:04:00,
2013-01-11 00:19:00,28.1,21.0,30.50,NE,41,0.0,-999.0,76,-99.99,,,0.00,weatherlink.com 1.10,2013-01-11 05:19:00,
2013-01-11 00:34:00,28.1,21.0,30.51,NE,41,0.0,-999.0,76,-99.99,,,0.00,weatherlink.com 1.10,2013-01-11 05:34:00,
2013-01-11 00:49:00,27.3,21.0,30.50,NE,41,2.0,-999.0,77,-99.99,,,0.00,weatherlink.com 1.10,2013-01-11 05:49:00,
2013-01-11 01:04:00,27.2,21.0,30.50,NE,41,0.0,-999.0,77,-99.99,,,0.00,weatherlink.com 1.10,2013-01-11 06:04:00,
2013-01-11 01:19:00,26.6,21.0,30.50,NE,41,0.0,-999.0,78,-99.99,,,0.00,weatherlink.com 1.10,2013-01-11 06:19:00,
2013-01-11 01:34:00,26.3,21.0,30.50,NE,41,0.0,-999.0,79,-99.99,,,0.00,weatherlink.com 1.10,2013-01-11 06:34:00,
2013-01-11 01:53:00,25.8,20.0,30.51,NE,41,0.0,-999.0,79,-99.99,,,0.00,weatherlink.com 1.10,2013-01-11 06:53:00,
2013-01-11 02:04:00,25.6,20.0,30.50,NE,41,0.0,-999.0,80,-99.99,,,0.00,weatherlink.com 1.10,2013-01-11 07:04:00,
2013-01-11 02:19:00,25.3,20.0,30.50,NE,41,0.0,-999.0,80,-99.99,,,0.00,weatherlink.com 1.10,2013-01-11 07:19:00,
2013-01-11 02:34:00,25.1,20.0,30.49,NE,41,0.0,-999.0,81,-99.99,,,0.00,weatherlink.com 1.10,2013-01-11 07:34:00,
2013-01-11 02:49:00,24.8,20.0,30.49,NE,41,0.0,-999.0,81,-99.99,,,0.00,weatherlink.com 1.10,2013-01-11 07:49:00,
2013-01-11 03:04:00,24.4,19.0,30.48,NE,41,0.0,-999.0,81,-99.99,,,0.00,weatherlink.com 1.10,2013-01-11 08:04:00,
2013-01-11 03:19:00,24.1,19.0,30.47,NE,41,0.0,-999.0,82,-99.99,,,0.00,weatherlink.com 1.10,2013-01-11 08:19:00,
2013-01-11 03:34:00,23.6,19.0,30.47,NE,41,0.0,-999.0,82,-99.99,,,0.00,weatherlink.com 1.10,2013-01-11 08:34:00,
2013-01-11 03:49:00,23.5,19.0,30.47,NE,41,0.0,-999.0,83,-99.99,,,0.00,weatherlink.com 1.10,2013-01-11 08:49:00,
2013-01-11 04:04:00,23.3,19.0,30.46,NE,41,0.0,-999.0,83,-99.99,,,0.00,weatherlink.com 1.10,2013-01-11 09:04:00,
2013-01-11 04:19:00,23.2,19.0,30.47,NE,41,0.0,-999.0,84,-99.99,,,0.00,weatherlink.com 1.10,2013-01-11 09:19:00,
2013-01-11 04:34:00,22.9,19.0,30.46,NE,41,0.0,-999.0,84,-99.99,,,0.00,weatherlink.com 1.10,2013-01-11 09:34:00,
2013-01-11 04:49:00,22.7,19.0,30.46,NE,41,0.0,-999.0,84,-99.99,,,0.00,weatherlink.com 1.10,2013-01-11 09:49:00,
2013-01-11 05:04:00,22.4,19.0,30.47,NE,41,0.0,-999.0,85,-99.99,,,0.00,weatherlink.com 1.10,2013-01-11 10:04:00,
2013-01-11 05:19:00,22.2,18.0,30.47,NE,41,0.0,-999.0,85,-99.99,,,0.00,weatherlink.com 1.10,2013-01-11 10:19:00,
2013-01-11 05:34:00,21.9,18.0,30.48,NE,41,0.0,-999.0,85,-99.99,,,0.00,weatherlink.com 1.10,2013-01-11 10:34:00,
2013-01-11 05:49:00,21.9,18.0,30.48,NE,41,0.0,-999.0,85,-99.99,,,0.00,weatherlink.com 1.10,2013-01-11 10:49:00,
2013-01-11 06:04:00,21.8,18.0,30.48,NE,41,0.0,-999.0,86,-99.99,,,0.00,weatherlink.com 1.10,2013-01-11 11:04:00,
2013-01-11 06:19:00,21.8,18.0,30.47,NE,41,0.0,-999.0,86,-99.99,,,0.00,weatherlink.com 1.10,2013-01-11 11:19:00,
2013-01-11 06:34:00,21.9,18.0,30.48,NE,41,0.0,-999.0,86,-99.99,,,0.00,weatherlink.com 1.10,2013-01-11 11:34:00,
2013-01-11 06:49:00,22.1,19.0,30.49,NE,41,0.0,-999.0,87,-99.99,,,0.00,weatherlink.com 1.10,2013-01-11 11:49:00,
2013-01-11 07:08:00,22.2,19.0,30.49,NE,41,0.0,-999.0,87,-99.99,,,0.00,weatherlink.com 1.10,2013-01-11 12:08:00,
2013-01-11 07:19:00,22.2,19.0,30.49,NE,41,0.0,-999.0,87,-99.99,,,0.00,weatherlink.com 1.10,2013-01-11 12:19:00,
2013-01-11 07:34:00,22.4,19.0,30.49,NE,41,0.0,-999.0,87,-99.99,,,0.00,weatherlink.com 1.10,2013-01-11 12:34:00,
2013-01-11 07:49:00,22.5,20.0,30.49,NE,41,0.0,-999.0,88,-99.99,,,0.00,weatherlink.com 1.10,2013-01-11 12:49:00,
2013-01-11 08:04:00,22.7,20.0,30.49,NE,41,0.0,-999.0,88,-99.99,,,0.00,weatherlink.com 1.10,2013-01-11 13:04:00,
2013-01-11 08:19:00,23.2,20.0,30.50,NE,41,0.0,-999.0,88,-99.99,,,0.00,weatherlink.com 1.10,2013-01-11 13:19:00,
2013-01-11 08:34:00,23.6,21.0,30.49,NE,41,0.0,-999.0,88,-99.99,,,0.00,weatherlink.com 1.10,2013-01-11 13:34:00,
2013-01-11 08:49:00,24.7,22.0,30.49,NE,41,0.0,-999.0,89,-99.99,,,0.00,weatherlink.com 1.10,2013-01-11 13:49:00,
2013-01-11 09:04:00,26.9,24.0,30.47,NE,41,0.0,-999.0,89,-99.99,,,0.00,weatherlink.com 1.10,2013-01-11 14:04:00,
2013-01-11 09:19:00,28.7,26.0,30.48,NE,41,0.0,-999.0,88,-99.99,,,0.00,weatherlink.com 1.10,2013-01-11 14:19:00,
2013-01-11 09:34:00,30.4,26.0,30.48,NE,41,0.0,-999.0,85,-99.99,,,0.00,weatherlink.com 1.10,2013-01-11 14:34:00,
2013-01-11 09:49:00,32.1,27.0,30.48,NE,41,0.0,-999.0,81,-99.99,,,0.00,weatherlink.com 1.10,2013-01-11 14:49:00,
2013-01-11 10:04:00,33.2,26.0,30.48,NE,42,0.0,-999.0,75,-99.99,,,0.00,weatherlink.com 1.10,2013-01-11 15:04:00,
2013-01-11 10:19:00,34.0,27.0,30.47,NE,42,0.0,-999.0,74,-99.99,,,0.00,weatherlink.com 1.10,2013-01-11 15:19:00,
2013-01-11 10:34:00,34.9,24.0,30.46,NE,42,0.0,-999.0,65,-99.99,,,0.00,weatherlink.com 1.10,2013-01-11 15:34:00,
2013-01-11 10:49:00,35.8,24.0,30.45,NE,44,0.0,-999.0,63,-99.99,,,0.00,weatherlink.com 1.10,2013-01-11 15:49:00,
2013-01-11 11:04:00,36.0,23.0,30.44,NE,47,0.0,-999.0,60,-99.99,,,0.00,weatherlink.com 1.10,2013-01-11 16:04:00,
2013-01-11 11:19:00,36.3,24.0,30.42,NE,47,0.0,-999.0,61,-99.99,,,0.00,weatherlink.com 1.10,2013-01-11 16:19:00,
2013-01-11 11:34:00,36.5,24.0,30.42,NE,47,0.0,-999.0,60,-99.99,,,0.00,weatherlink.com 1.10,2013-01-11 16:34:00,
2013-01-11 11:49:00,36.8,24.0,30.41,NE,48,0.0,-999.0,60,-99.99,,,0.00,weatherlink.com 1.10,2013-01-11 16:49:00,
2013-01-11 12:04:00,37.0,24.0,30.41,NE,48,0.0,-999.0,60,-99.99,,,0.00,weatherlink.com 1.10,2013-01-11 17:04:00,
2013-01-11 12:19:00,37.5,25.0,30.40,NE,51,0.0,-999.0,60,-99.99,,,0.00,weatherlink.com 1.10,2013-01-11 17:19:00,
2013-01-11 12:34:00,37.5,24.0,30.39,NE,51,0.0,-999.0,59,-99.99,,,0.00,weatherlink.com 1.10,2013-01-11 17:34:00,
2013-01-11 12:49:00,37.5,25.0,30.38,ENE,75,0.0,-999.0,61,-99.99,,,0.00,weatherlink.com 1.10,2013-01-11 17:49:00,
2013-01-11 13:04:00,37.8,25.0,30.38,ENE,75,0.0,-999.0,60,-99.99,,,0.00,weatherlink.com 1.10,2013-01-11 18:04:00,
2013-01-11 13:19:00,37.8,25.0,30.38,ENE,75,1.0,-999.0,60,-99.99,,,0.00,weatherlink.com 1.10,2013-01-11 18:19:00,
2013-01-11 13:34:00,37.8,25.0,30.38,ENE,75,0.0,-999.0,60,-99.99,,,0.00,weatherlink.com 1.10,2013-01-11 18:34:00,
2013-01-11 13:49:00,37.8,25.0,30.37,ENE,75,0.0,-999.0,61,-99.99,,,0.00,weatherlink.com 1.10,2013-01-11 18:49:00,
2013-01-11 14:04:00,37.8,25.0,30.36,ENE,75,0.0,-999.0,61,-99.99,,,0.00,weatherlink.com 1.10,2013-01-11 19:04:00,
2013-01-11 14:19:00,37.5,25.0,30.36,ENE,75,0.0,-999.0,60,-99.99,,,0.00,weatherlink.com 1.10,2013-01-11 19:19:00,
2013-01-11 14:34:00,37.2,25.0,30.35,ENE,75,0.0,-999.0,61,-99.99,,,0.00,weatherlink.com 1.10,2013-01-11 19:34:00,
2013-01-11 14:49:00,37.2,25.0,30.35,ENE,75,0.0,-999.0,61,-99.99,,,0.00,weatherlink.com 1.10,2013-01-11 19:49:00,
2013-01-11 15:04:00,37.0,25.0,30.34,ENE,75,0.0,-999.0,61,-99.99,,,0.00,weatherlink.com 1.10,2013-01-11 20:04:00,
2013-01-11 15:19:00,37.0,25.0,30.32,ENE,75,0.0,-999.0,62,-99.99,,,0.00,weatherlink.com 1.10,2013-01-11 20:19:00,
2013-01-11 15:34:00,36.9,24.0,30.33,ENE,75,0.0,-999.0,61,-99.99,,,0.00,weatherlink.com 1.10,2013-01-11 20:34:00,
2013-01-11 15:49:00,36.8,25.0,30.32,ENE,75,0.0,-999.0,62,-99.99,,,0.00,weatherlink.com 1.10,2013-01-11 20:49:00,
2013-01-11 16:04:00,36.5,25.0,30.31,ENE,75,0.0,-999.0,64,-99.99,,,0.00,weatherlink.com 1.10,2013-01-11 21:04:00,
2013-01-11 16:19:00,36.3,25.0,30.30,ENE,75,0.0,-999.0,65,-99.99,,,0.00,weatherlink.com 1.10,2013-01-11 21:19:00,
2013-01-11 16:34:00,36.0,26.0,30.30,ENE,75,0.0,-999.0,66,-99.99,,,0.00,weatherlink.com 1.10,2013-01-11 21:34:00,
2013-01-11 16:49:00,35.5,26.0,30.30,ENE,75,0.0,-999.0,68,-99.99,,,0.00,weatherlink.com 1.10,2013-01-11 21:49:00,
2013-01-11 17:04:00,35.0,26.0,30.30,ENE,75,0.0,-999.0,70,-99.99,,,0.00,weatherlink.com 1.10,2013-01-11 22:04:00,
2013-01-11 17:19:00,34.9,26.0,30.29,ENE,75,0.0,-999.0,71,-99.99,,,0.00,weatherlink.com 1.10,2013-01-11 22:19:00,
2013-01-11 17:34:00,34.7,27.0,30.29,ENE,75,0.0,-999.0,72,-99.99,,,0.00,weatherlink.com 1.10,2013-01-11 22:34:00,
2013-01-11 17:49:00,34.4,27.0,30.29,ENE,75,0.0,-999.0,75,-99.99,,,0.01,weatherlink.com 1.10,2013-01-11 22:49:00,
2013-01-11 18:04:00,34.4,28.0,30.28,ENE,75,0.0,-999.0,78,-99.99,,,0.01,weatherlink.com 1.10,2013-01-11 23:04:00,
2013-01-11 18:19:00,34.3,28.0,30.27,ENE,75,0.0,-999.0,79,-99.99,,,0.01,weatherlink.com 1.10,2013-01-11 23:19:00,
2013-01-11 18:34:00,34.0,29.0,30.27,ENE,75,0.0,-999.0,81,-99.99,,,0.01,weatherlink.com 1.10,2013-01-11 23:34:00,
2013-01-11 18:49:00,33.7,29.0,30.26,ENE,75,0.0,-999.0,83,-99.99,,,0.01,weatherlink.com 1.10,2013-01-11 23:49:00,
2013-01-11 19:04:00,33.5,29.0,30.26,ENE,75,0.0,-999.0,84,-99.99,,,0.02,weatherlink.com 1.10,2013-01-12 00:04:00,
2013-01-11 19:19:00,33.4,29.0,30.25,ENE,75,0.0,-999.0,85,-99.99,,,0.02,weatherlink.com 1.10,2013-01-12 00:19:00,
2013-01-11 19:34:00,33.4,30.0,30.25,ENE,75,0.0,-999.0,86,-99.99,,,0.02,weatherlink.com 1.10,2013-01-12 00:34:00,
2013-01-11 19:49:00,33.4,30.0,30.26,ENE,75,0.0,-999.0,87,-99.99,,,0.02,weatherlink.com 1.10,2013-01-12 00:49:00,
2013-01-11 20:04:00,33.2,30.0,30.25,ENE,75,0.0,-999.0,88,-99.99,,,0.03,weatherlink.com 1.10,2013-01-12 01:04:00,
2013-01-11 20:19:00,33.2,30.0,30.24,ENE,75,0.0,-999.0,88,-99.99,,,0.04,weatherlink.com 1.10,2013-01-12 01:19:00,
2013-01-11 20:34:00,33.2,30.0,30.24,ENE,75,0.0,-999.0,89,-99.99,,,0.04,weatherlink.com 1.10,2013-01-12 01:34:00,
2013-01-11 20:49:00,33.2,30.0,30.24,ENE,75,0.0,-999.0,89,-99.99,,,0.05,weatherlink.com 1.10,2013-01-12 01:49:00,
2013-01-11 21:04:00,33.1,30.0,30.23,ENE,75,0.0,-999.0,89,-99.99,,,0.06,weatherlink.com 1.10,2013-01-12 02:04:00,
2013-01-11 21:19:00,33.1,31.0,30.23,ENE,75,0.0,-999.0,90,-99.99,,,0.06,weatherlink.com 1.10,2013-01-12 02:19:00,
2013-01-11 21:34:00,33.2,31.0,30.23,ENE,75,0.0,-999.0,91,-99.99,,,0.07,weatherlink.com 1.10,2013-01-12 02:34:00,
2013-01-11 21:49:00,33.1,31.0,30.22,ENE,75,0.0,-999.0,93,-99.99,,,0.08,weatherlink.com 1.10,2013-01-12 02:49:00,
2013-01-11 22:04:00,33.2,33.0,30.22,ENE,75,0.0,-999.0,98,-99.99,,,0.08,weatherlink.com 1.10,2013-01-12 03:04:00,
2013-01-11 22:19:00,33.1,33.0,30.21,ENE,75,0.0,-999.0,99,-99.99,,,0.08,weatherlink.com 1.10,2013-01-12 03:19:00,
2013-01-11 22:34:00,33.1,33.0,30.22,ENE,75,0.0,-999.0,100,-99.99,,,0.09,weatherlink.com 1.10,2013-01-12 03:34:00,
2013-01-11 22:49:00,33.2,33.0,30.22,ENE,75,0.0,-999.0,100,-99.99,,,0.10,weatherlink.com 1.10,2013-01-12 03:49:00,
2013-01-11 23:04:00,33.2,33.0,30.22,ENE,75,0.0,-999.0,100,-99.99,,,0.11,weatherlink.com 1.10,2013-01-12 04:04:00,
2013-01-11 23:19:00,33.2,33.0,30.22,ENE,75,0.0,-999.0,100,-99.99,,,0.12,weatherlink.com 1.10,2013-01-12 04:19:00,
2013-01-11 23:34:00,33.1,33.0,30.22,ENE,75,0.0,-999.0,100,-99.99,,,0.13,weatherlink.com 1.10,2013-01-12 04:34:00,
2013-01-11 23:49:00,33.1,33.0,30.21,ENE,75,0.0,-999.0,100,-99.99,,,0.13,weatherlink.com 1.10,2013-01-12 04:49:00,